createdAt,value
2019-02-04T00:03:07.882Z,"    0"
2019-02-04T00:08:03.052Z,"    0"
2019-02-04T00:12:58.501Z,"    0"
2019-02-04T00:17:55.031Z,"    0"
2019-02-04T00:22:50.604Z,"    0"
2019-02-04T00:27:46.166Z,"    0"
2019-02-04T00:32:42.150Z,"    0"
2019-02-04T00:37:38.577Z,"    0"
2019-02-04T00:42:33.809Z,"    0"
2019-02-04T00:47:29.554Z,"    0"
2019-02-04T00:52:25.272Z,"    0"
2019-02-04T00:57:20.920Z,"    0"
2019-02-04T01:02:16.583Z,"    0"
2019-02-04T01:07:12.148Z,"    0"
2019-02-04T01:12:07.673Z,"    0"
2019-02-04T01:17:04.012Z,"    0"
2019-02-04T01:22:00.455Z,"    0"
2019-02-04T01:26:55.605Z,"    0"
2019-02-04T01:31:52.156Z,"    0"
2019-02-04T01:36:47.652Z,"    0"
2019-02-04T01:41:43.286Z,"    0"
2019-02-04T01:46:39.819Z,"    0"
2019-02-04T01:51:35.109Z,"    0"
2019-02-04T01:56:30.743Z,"    0"
2019-02-04T02:01:26.118Z,"    0"
2019-02-04T02:06:21.649Z,"    0"
2019-02-04T02:11:17.422Z,"    0"
2019-02-04T02:16:14.325Z,"    0"
2019-02-04T02:21:09.495Z,"    0"
2019-02-04T02:26:05.018Z,"    0"
2019-02-04T02:31:00.538Z,"    0"
2019-02-04T02:35:56.922Z,"    0"
2019-02-04T02:40:53.598Z,"    0"
2019-02-04T02:45:48.740Z,"    0"
2019-02-04T02:50:44.251Z,"    0"
2019-02-04T02:55:39.716Z,"    0"
2019-02-04T03:00:35.237Z,"    0"
2019-02-04T03:05:30.733Z,"    0"
2019-02-04T03:10:26.293Z,"    0"
2019-02-04T03:15:21.901Z,"    0"
2019-02-04T03:20:17.500Z,"    0"
2019-02-04T03:25:13.687Z,"    0"
2019-02-04T03:30:10.339Z,"    0"
2019-02-04T03:35:06.558Z,"    0"
2019-02-04T03:40:01.667Z,"    0"
2019-02-04T03:44:57.164Z,"    0"
2019-02-04T03:49:53.438Z,"    0"
2019-02-04T03:54:48.921Z,"    0"
2019-02-04T03:59:44.687Z,"    0"
2019-02-04T04:04:41.300Z,"    0"
2019-02-04T04:09:37.299Z,"    0"
2019-02-04T04:14:32.785Z,"    0"
2019-02-04T04:19:28.398Z,"    0"
2019-02-04T04:24:24.008Z,"    0"
2019-02-04T04:29:20.249Z,"    0"
2019-02-04T04:34:16.199Z,"    0"
2019-02-04T04:39:11.480Z,"    0"
2019-02-04T04:44:07.081Z,"    0"
2019-02-04T04:49:02.546Z,"    0"
2019-02-04T04:53:58.318Z,"    0"
2019-02-04T04:58:53.942Z,"    0"
2019-02-04T05:03:49.683Z,"    0"
2019-02-04T05:08:46.212Z,"    0"
2019-02-04T05:13:41.537Z,"    0"
2019-02-04T05:18:38.418Z,"    0"
2019-02-04T05:23:34.042Z,"    0"
2019-02-04T05:28:29.237Z,"    0"
2019-02-04T05:33:24.531Z,"    0"
2019-02-04T05:38:20.415Z,"    0"
2019-02-04T05:43:16.721Z,"    0"
2019-02-04T05:48:12.172Z,"    0"
2019-02-04T05:53:08.324Z,"    0"
2019-02-04T05:58:03.767Z,"    0"
2019-02-04T06:03:00.182Z,"    0"
2019-02-04T06:07:56.647Z,"    0"
2019-02-04T06:12:54.013Z,"    0"
2019-02-04T06:17:49.200Z,"    0"
2019-02-04T06:22:44.687Z,"    0"
2019-02-04T06:27:40.458Z,"    0"
2019-02-04T06:32:36.248Z,"    4"
2019-02-04T06:37:32.726Z,"    4"
2019-02-04T06:42:28.415Z,"    8"
2019-02-04T06:47:24.060Z,"   20"
2019-02-04T06:52:19.503Z,"   48"
2019-02-04T06:57:15.061Z,"   96"
2019-02-04T07:02:10.793Z,"  164"
2019-02-04T07:07:06.580Z,"  256"
2019-02-04T07:12:03.288Z,"  392"
2019-02-04T07:16:58.893Z,"  580"
2019-02-04T07:21:55.516Z,"  800"
2019-02-04T07:26:50.873Z," 1044"
2019-02-04T07:31:46.523Z," 1280"
2019-02-04T07:36:42.186Z," 1496"
2019-02-04T07:41:37.811Z," 1768"
2019-02-04T07:46:34.569Z," 2048"
2019-02-04T07:51:29.826Z," 2180"
2019-02-04T07:56:25.712Z," 2408"
2019-02-04T08:01:21.258Z," 2684"
2019-02-04T08:06:17.042Z," 2852"
2019-02-04T08:11:12.660Z," 3012"
2019-02-04T08:16:08.261Z," 3180"
2019-02-04T08:21:04.566Z," 3388"
2019-02-04T08:26:01.287Z," 3648"
2019-02-04T08:30:56.659Z," 3824"
2019-02-04T08:35:53.306Z," 3848"
2019-02-04T08:40:48.640Z," 3880"
2019-02-04T08:45:44.367Z," 3816"
2019-02-04T08:50:40.554Z," 3888"
2019-02-04T08:55:36.363Z," 4156"
2019-02-04T09:00:31.996Z," 4608"
2019-02-04T09:05:28.780Z," 5168"
2019-02-04T09:10:24.247Z," 5504"
2019-02-04T09:15:20.256Z," 5812"
2019-02-04T09:20:16.020Z," 6012"
2019-02-04T09:25:12.348Z," 6036"
2019-02-04T09:30:08.224Z," 5984"
2019-02-04T09:35:04.071Z," 6092"
2019-02-04T09:39:59.881Z," 6280"
2019-02-04T09:44:55.789Z," 6636"
2019-02-04T09:49:52.586Z," 6880"
2019-02-04T09:54:48.166Z," 6764"
2019-02-04T09:59:43.876Z," 6688"
2019-02-04T10:04:39.478Z," 6700"
2019-02-04T10:09:35.233Z," 6700"
2019-02-04T10:14:31.573Z," 6904"
2019-02-04T10:19:27.318Z," 6864"
2019-02-04T10:24:23.388Z," 6644"
2019-02-04T10:29:19.690Z," 6588"
2019-02-04T10:34:16.543Z," 6564"
2019-02-04T10:39:13.085Z," 6784"
2019-02-04T10:44:09.588Z," 7084"
2019-02-04T10:49:05.953Z," 7212"
2019-02-04T10:54:01.999Z," 7344"
2019-02-04T10:58:58.905Z," 7712"
2019-02-04T11:03:54.554Z," 8212"
2019-02-04T11:08:50.392Z," 8928"
2019-02-04T11:13:47.142Z," 9560"
2019-02-04T11:18:42.923Z," 9452"
2019-02-04T11:23:40.243Z," 8796"
2019-02-04T11:28:36.721Z," 8396"
2019-02-04T11:33:32.017Z," 8448"
2019-02-04T11:38:27.915Z," 8304"
2019-02-04T11:43:23.785Z," 8176"
2019-02-04T11:48:19.604Z," 8560"
2019-02-04T11:53:15.382Z," 8744"
2019-02-04T11:58:11.152Z," 8600"
2019-02-04T12:03:07.553Z," 8808"
2019-02-04T12:08:03.648Z," 9508"
2019-02-04T12:12:59.347Z," 8960"
2019-02-04T12:17:55.121Z," 7984"
2019-02-04T12:22:50.871Z," 7708"
2019-02-04T12:27:47.458Z," 7800"
2019-02-04T12:32:43.369Z," 7800"
2019-02-04T12:37:38.994Z," 7708"
2019-02-04T12:42:34.478Z," 7476"
2019-02-04T12:47:30.283Z," 7004"
2019-02-04T12:52:27.159Z," 6936"
2019-02-04T12:57:23.352Z," 6916"
2019-02-04T13:02:18.992Z," 6540"
2019-02-04T13:07:15.710Z," 6020"
2019-02-04T13:12:10.827Z," 5540"
2019-02-04T13:17:06.526Z," 5120"
2019-02-04T13:22:03.043Z," 4972"
2019-02-04T13:27:00.039Z," 4804"
2019-02-04T13:31:55.364Z," 4592"
2019-02-04T13:36:51.481Z," 4476"
2019-02-04T13:41:48.363Z," 4344"
2019-02-04T13:46:44.353Z," 4028"
2019-02-04T13:51:40.247Z," 3760"
2019-02-04T13:56:36.100Z," 3528"
2019-02-04T14:01:31.611Z," 3280"
2019-02-04T14:06:28.299Z," 2964"
2019-02-04T14:11:23.244Z," 2640"
2019-02-04T14:16:19.868Z," 2412"
2019-02-04T14:21:15.164Z," 2300"
2019-02-04T14:26:10.581Z," 2352"
2019-02-04T14:31:06.967Z," 2196"
2019-02-04T14:36:02.334Z," 2032"
2019-02-04T14:40:59.373Z," 1840"
2019-02-04T14:45:56.351Z," 1592"
2019-02-04T14:50:52.104Z," 1436"
2019-02-04T14:55:48.082Z," 1312"
2019-02-04T15:00:43.920Z," 1164"
2019-02-04T15:05:40.865Z," 1120"
2019-02-04T15:10:36.640Z," 1016"
2019-02-04T15:15:32.427Z,"  832"
2019-02-04T15:20:29.012Z,"  700"
2019-02-04T15:25:24.419Z,"  800"
2019-02-04T15:30:20.261Z,"  672"
2019-02-04T15:35:16.753Z,"  544"
2019-02-04T15:40:12.212Z,"  440"
2019-02-04T15:45:07.896Z,"  384"
2019-02-04T15:50:03.628Z,"  416"
2019-02-04T15:55:00.273Z,"  388"
2019-02-04T15:59:55.726Z,"  340"
2019-02-04T16:04:52.492Z,"  312"
2019-02-04T16:09:47.916Z,"  260"
2019-02-04T16:14:44.351Z,"  144"
2019-02-04T16:19:39.918Z,"   80"
2019-02-04T16:24:35.791Z,"   48"
2019-02-04T16:29:32.389Z,"   28"
2019-02-04T16:34:27.747Z,"   16"
2019-02-04T16:39:24.090Z,"    8"
2019-02-04T16:44:19.607Z,"    4"
2019-02-04T16:49:14.923Z,"    0"
2019-02-04T16:54:10.548Z,"    0"
2019-02-04T16:59:06.133Z,"    0"
2019-02-04T17:04:01.955Z,"    0"
2019-02-04T17:08:58.480Z,"    0"
2019-02-04T17:13:54.022Z,"    0"
2019-02-04T17:18:49.459Z,"    0"
2019-02-04T17:23:45.032Z,"    0"
2019-02-04T17:28:40.712Z,"    0"
2019-02-04T17:33:36.562Z,"    0"
2019-02-04T17:38:32.835Z,"    0"
2019-02-04T17:43:28.373Z,"    0"
2019-02-04T17:48:23.854Z,"    0"
2019-02-04T17:53:19.737Z,"    0"
2019-02-04T17:58:16.362Z,"    0"
2019-02-04T18:03:11.651Z,"    0"
2019-02-04T18:08:07.276Z,"    0"
2019-02-04T18:13:04.279Z,"    0"
2019-02-04T18:17:59.596Z,"    0"
2019-02-04T18:22:54.949Z,"    0"
2019-02-04T18:27:50.723Z,"    0"
2019-02-04T18:32:46.342Z,"    0"
2019-02-04T18:37:42.140Z,"    0"
2019-02-04T18:42:37.941Z,"    0"
2019-02-04T18:47:33.683Z,"    0"
2019-02-04T18:52:29.840Z,"    0"
2019-02-04T18:57:26.583Z,"    0"
2019-02-04T19:02:22.156Z,"    0"
2019-02-04T19:07:19.024Z,"    0"
2019-02-04T19:12:14.295Z,"    0"
2019-02-04T19:17:09.986Z,"    0"
2019-02-04T19:22:07.410Z,"    0"
2019-02-04T19:27:03.668Z,"    0"
2019-02-04T19:31:59.051Z,"    0"
2019-02-04T19:36:55.349Z,"    0"
2019-02-04T19:41:51.742Z,"    0"
2019-02-04T19:46:47.551Z,"    0"
2019-02-04T19:51:43.273Z,"    0"
2019-02-04T19:56:41.280Z,"    0"
2019-02-04T20:01:36.346Z,"    0"
2019-02-04T20:06:32.193Z,"    0"
2019-02-04T20:11:27.914Z,"    0"
2019-02-04T20:16:23.556Z,"    0"
2019-02-04T20:21:19.373Z,"    0"
2019-02-04T20:26:15.490Z,"    0"
2019-02-04T20:31:11.133Z,"    0"
2019-02-04T20:36:06.724Z,"    0"
2019-02-04T20:41:03.399Z,"    0"
2019-02-04T20:45:59.877Z,"    0"
2019-02-04T20:50:56.400Z,"    0"
2019-02-04T20:55:52.015Z,"    0"
2019-02-04T21:00:48.251Z,"    0"
2019-02-04T21:05:43.998Z,"    0"
2019-02-04T21:10:39.069Z,"    0"
2019-02-04T21:15:34.631Z,"    0"
2019-02-04T21:20:30.778Z,"    0"
2019-02-04T21:25:26.025Z,"    0"
2019-02-04T21:30:21.591Z,"    0"
2019-02-04T21:35:18.167Z,"    0"
2019-02-04T21:40:13.977Z,"    0"
2019-02-04T21:45:10.669Z,"    0"
2019-02-04T21:50:07.662Z,"    0"
2019-02-04T21:55:08.588Z,"    0"
2019-02-04T22:00:04.917Z,"    0"
2019-02-04T22:04:59.942Z,"    0"
2019-02-04T22:09:55.670Z,"    0"
2019-02-04T22:14:51.676Z,"    0"
2019-02-04T22:19:49.081Z,"    0"
2019-02-04T22:24:44.842Z,"    0"
2019-02-04T22:29:41.331Z,"    0"
2019-02-04T22:34:37.999Z,"    0"
2019-02-04T22:39:33.575Z,"    0"
2019-02-04T22:44:30.316Z,"    0"
2019-02-04T22:49:26.129Z,"    0"
2019-02-04T22:54:21.777Z,"    0"
2019-02-04T22:59:17.574Z,"    0"
2019-02-04T23:04:13.414Z,"    0"
2019-02-04T23:09:09.498Z,"    0"
2019-02-04T23:14:06.092Z,"    0"
2019-02-04T23:19:01.401Z,"    0"
2019-02-04T23:23:58.691Z,"    0"
2019-02-04T23:28:53.929Z,"    0"
2019-02-04T23:33:50.782Z,"    0"
2019-02-04T23:38:46.453Z,"    0"
2019-02-04T23:43:41.747Z,"    0"
2019-02-04T23:48:37.472Z,"    0"
2019-02-04T23:53:33.060Z,"    0"
2019-02-04T23:58:29.718Z,"    0"
